Amagimaru — JG5745 — position and weather

sailwx.info

Track history (hours):
 
Tides and Currents Weather Stations Pressure Air Temp Water Temp Dewpoint Dewpoint Depression Visibility Wind Speed Wind Dir Waves Ship Positions

Amagimaru

Last reported at 2018-Feb-19 09:22 UTC. Time now 2018-Feb-19 09:51 UTC.
Position N 35°13' E 139°43'.

Length 38 m; draft 3.4 m.

Type: Tug. MMSI: 431101065.

Date/timePositionNaut miles runAvg speedWind from/ knotsBaromVisibWave heightAir tempDewpointWater temp
2018-Feb-19 09:22N 35°13' E 139°43'1 2.2
2018-Feb-19 09:00N 35°13' E 139°44'2 3.4
2018-Feb-19 08:30N 35°14' E 139°46'0 0.7
2018-Feb-19 08:00N 35°14' E 139°45'4 8.3
2018-Feb-19 07:29N 35°10' E 139°47'4 7.7
2018-Feb-19 07:01N 35°13' E 139°44'1 1.8
2018-Feb-19 06:30N 35°13' E 139°43'0 0.0
2018-Feb-19 05:54N 35°13' E 139°43'0 0.0
2018-Feb-19 05:30N 35°13' E 139°43'3 5.2
2018-Feb-19 05:00N 35°12' E 139°46'2 3.3
2018-Feb-19 04:31N 35°14' E 139°45'2 3.9
2018-Feb-19 04:00N 35°13' E 139°43'0 0.0
2018-Feb-19 03:30N 35°13' E 139°43'0 0.0
2018-Feb-19 03:00N 35°13' E 139°43'0 0.0
2018-Feb-19 02:30N 35°13' E 139°43'4 7.4
2018-Feb-19 02:00N 35°10' E 139°46'1 2.1
2018-Feb-19 01:30N 35°11' E 139°46'3 5.6
2018-Feb-19 01:00N 35°13' E 139°43'0 0.0
2018-Feb-19 00:30N 35°13' E 139°43'0 0.0
2018-Feb-19 00:00N 35°13' E 139°43'0 0.0
2018-Feb-18 23:30N 35°13' E 139°43'0 0.0
2018-Feb-18 23:00N 35°13' E 139°43'0 0.0
2018-Feb-18 22:30N 35°13' E 139°43'0 0.0
2018-Feb-18 22:00N 35°13' E 139°43'0 0.0
2018-Feb-18 21:30N 35°13' E 139°43'3 5.4
2018-Feb-18 21:00N 35°11' E 139°45'2 3.9
2018-Feb-18 20:30N 35°10' E 139°47'5 9.3
2018-Feb-18 20:00N 35°13' E 139°43'0 0.0
2018-Feb-18 19:30N 35°13' E 139°43'1 2.3
2018-Feb-18 19:00N 35°13' E 139°44'2 4.4
2018-Feb-18 18:30N 35°11' E 139°46'3 6.5
2018-Feb-18 18:00N 35°13' E 139°43'0 0.0
2018-Feb-18 17:30N 35°13' E 139°43'0 0.0
2018-Feb-18 17:00N 35°13' E 139°43'0 0.0
2018-Feb-18 16:30N 35°13' E 139°43'0 0.0
2018-Feb-18 16:00N 35°13' E 139°43'0 0.0
2018-Feb-18 15:30N 35°13' E 139°43'0 0.0
2018-Feb-18 15:00N 35°13' E 139°43'0 0.0
2018-Feb-18 14:30N 35°13' E 139°43'0 0.0
2018-Feb-18 14:00N 35°13' E 139°43'0 0.0
2018-Feb-18 13:30N 35°13' E 139°43'0 0.0
2018-Feb-18 12:59N 35°13' E 139°43'0 0.0
2018-Feb-18 12:30N 35°13' E 139°43'0 0.0
2018-Feb-18 12:00N 35°13' E 139°43'0 0.0
2018-Feb-18 11:30N 35°13' E 139°43'0 0.0
2018-Feb-18 11:00N 35°13' E 139°43'2 4.3
2018-Feb-18 10:30N 35°13' E 139°46'1 2.8
2018-Feb-18 10:00N 35°13' E 139°44'1 1.4
2018-Feb-18 09:27N 35°13' E 139°43'1 1.9
2018-Feb-18 09:00N 35°13' E 139°44'2 3.1
2018-Feb-18 08:30N 35°14' E 139°46'1 2.9
2018-Feb-18 07:59N 35°12' E 139°46'2 3.7
2018-Feb-18 07:28N 35°11' E 139°47'4 8.7
2018-Feb-18 07:01N 35°13' E 139°43'0 0.1
2018-Feb-18 06:30N 35°13' E 139°43'0 0.0
2018-Feb-18 05:59N 35°13' E 139°43'0 0.0
2018-Feb-18 05:30N 35°13' E 139°43'0 0.0
2018-Feb-18 05:00N 35°13' E 139°43'0 0.0
2018-Feb-18 04:29N 35°13' E 139°43'0 0.0
2018-Feb-18 04:00N 35°13' E 139°43'1 1.9
2018-Feb-18 03:30N 35°13' E 139°44'4 7.5
2018-Feb-18 02:59N 35°10' E 139°47'2 3.1
2018-Feb-18 02:30N 35°11' E 139°46'3 6.0
2018-Feb-18 02:00N 35°13' E 139°43'0 0.0
2018-Feb-18 01:30N 35°13' E 139°43'0 0.0
2018-Feb-18 00:58N 35°13' E 139°43'0 0.0
2018-Feb-18 00:28N 35°13' E 139°43'1 2.5
2018-Feb-18 00:00N 35°13' E 139°44'4 7.2
2018-Feb-17 23:30N 35°10' E 139°46'4 7.6
2018-Feb-17 23:00N 35°13' E 139°44'1 1.7
2018-Feb-17 22:30N 35°13' E 139°43'0 0.0
2018-Feb-17 22:00N 35°13' E 139°43'0 0.0
2018-Feb-17 21:30N 35°13' E 139°43'0 0.0
2018-Feb-17 21:00N 35°13' E 139°43'0 0.0
2018-Feb-17 20:30N 35°13' E 139°43'4 8.2
2018-Feb-17 20:00N 35°10' E 139°46'1 2.1
2018-Feb-17 19:30N 35°10' E 139°47'4 7.1
2018-Feb-17 19:00N 35°13' E 139°45'1 2.3
2018-Feb-17 18:29N 35°13' E 139°43'0 0.0
2018-Feb-17 18:00N 35°13' E 139°43'0 0.0
2018-Feb-17 17:28N 35°13' E 139°43'0 0.0
2018-Feb-17 16:58N 35°13' E 139°43'0 0.0
2018-Feb-17 16:28N 35°13' E 139°43'0 0.0
2018-Feb-17 15:59N 35°13' E 139°43'0 0.0
2018-Feb-17 15:27N 35°13' E 139°43'0 0.0
2018-Feb-17 14:50N 35°13' E 139°43'0 0.0
2018-Feb-17 14:06N 35°13' E 139°43'0 0.0
2018-Feb-17 14:00N 35°13' E 139°43'2 4.2
2018-Feb-17 13:30N 35°13' E 139°46'1 1.8
2018-Feb-17 13:00N 35°13' E 139°45'1 2.5
2018-Feb-17 12:30N 35°13' E 139°43'0 0.0
2018-Feb-17 12:00N 35°13' E 139°43'0 0.0
2018-Feb-17 11:30N 35°13' E 139°43'2 4.4
2018-Feb-17 10:59N 35°13' E 139°46'1 3.1
2018-Feb-17 10:30N 35°13' E 139°44'1 1.1
2018-Feb-17 09:45N 35°13' E 139°43'0 0.0
2018-Feb-17 09:12N 35°13' E 139°43'0 0.0
2018-Feb-17 09:00N 35°13' E 139°43'1 1.3
2018-Feb-17 08:30N 35°13' E 139°44'1 2.9
2018-Feb-17 08:00N 35°14' E 139°45'0 0.7
2018-Feb-17 07:31N 35°14' E 139°45'4 8.2
2018-Feb-17 07:00N 35°10' E 139°47'2 3.3
2018-Feb-17 06:30N 35°11' E 139°47'4 7.7
2018-Feb-17 06:01N 35°13' E 139°43'2 4.6
2018-Feb-17 05:30N 35°13' E 139°46'1 2.9
2018-Feb-17 05:00N 35°13' E 139°44'1 1.8
2018-Feb-17 04:30N 35°13' E 139°43'0 0.0
2018-Feb-17 01:45N 35°13' E 139°43'0 0.0
2018-Feb-17 01:24N 35°13' E 139°43'0 0.0
2018-Feb-17 00:59N 35°13' E 139°43'0 0.0
2018-Feb-17 00:28N 35°13' E 139°43'0 0.0
2018-Feb-16 23:09N 35°13' E 139°43'0 0.1
2018-Feb-16 23:00N 35°13' E 139°43'2 4.0
2018-Feb-16 22:30N 35°13' E 139°46'2 4.0
2018-Feb-16 22:00N 35°13' E 139°43'0 0.0
2018-Feb-16 21:30N 35°13' E 139°43'0 0.0
2018-Feb-16 21:01N 35°13' E 139°43'4 7.9
2018-Feb-16 20:31N 35°10' E 139°47'4 7.8
2018-Feb-16 20:00N 35°13' E 139°43'5 9.4
2018-Feb-16 19:30N 35°09' E 139°46'1 1.4
2018-Feb-16 19:00N 35°10' E 139°47'3 6.7
2018-Feb-16 18:30N 35°13' E 139°44'1 2.3
2018-Feb-16 18:00N 35°13' E 139°43'0 0.0
2018-Feb-16 17:30N 35°13' E 139°43'3 5.2
2018-Feb-16 17:00N 35°12' E 139°46'1 2.7
2018-Feb-16 16:30N 35°13' E 139°45'2 3.1
2018-Feb-16 16:00N 35°13' E 139°43'0 0.0
2018-Feb-16 15:30N 35°13' E 139°43'0 0.0
2018-Feb-16 15:00N 35°13' E 139°43'0 0.0
2018-Feb-16 14:30N 35°13' E 139°43'0 0.0
2018-Feb-16 14:00N 35°13' E 139°43'0 0.0
2018-Feb-16 13:30N 35°13' E 139°43'0 0.0
2018-Feb-16 13:00N 35°13' E 139°43'0 0.0
2018-Feb-16 12:30N 35°13' E 139°43'0 0.0
2018-Feb-16 12:00N 35°13' E 139°43'2 4.7
2018-Feb-16 11:30N 35°12' E 139°46'1 2.9
2018-Feb-16 11:00N 35°13' E 139°45'1 2.6
2018-Feb-16 10:29N 35°13' E 139°43'0 0.0
2018-Feb-16 10:00N 35°13' E 139°43'0 0.0
2018-Feb-16 09:30N 35°13' E 139°43'0 0.1
2018-Feb-16 08:53N 35°13' E 139°43'2 6.1
2018-Feb-16 08:31N 35°12' E 139°46'1 2.6
2018-Feb-16 08:00N 35°14' E 139°45'2 3.0
2018-Feb-16 07:30N 35°13' E 139°43'0 0.0
2018-Feb-16 06:58N 35°13' E 139°43'0 0.0
2018-Feb-16 06:30N 35°13' E 139°43'0 0.0
2018-Feb-16 05:56N 35°13' E 139°43'3 6.2
2018-Feb-16 05:30N 35°12' E 139°46'1 2.9
2018-Feb-16 05:00N 35°13' E 139°45'2 3.3
2018-Feb-16 04:30N 35°13' E 139°43'0 0.0
2018-Feb-16 04:00N 35°13' E 139°43'0 0.0
2018-Feb-16 03:29N 35°13' E 139°43'0 0.0
2018-Feb-16 03:01N 35°13' E 139°43'0 0.0
2018-Feb-16 02:30N 35°13' E 139°43'3 6.2
2018-Feb-16 02:00N 35°11' E 139°46'0 0.0
2018-Feb-16 01:31N 35°11' E 139°46'3 5.5
2018-Feb-16 00:58N 35°13' E 139°43'0 0.0
2018-Feb-16 00:30N 35°13' E 139°43'0 0.0
2018-Feb-15 23:56N 35°13' E 139°43'0 0.0
2018-Feb-15 23:30N 35°13' E 139°43'0 0.0
2018-Feb-15 22:59N 35°13' E 139°43'0 0.0
2018-Feb-15 22:30N 35°13' E 139°43'0 0.0
2018-Feb-15 21:26N 35°13' E 139°43'1 1.8
2018-Feb-15 21:00N 35°13' E 139°44'1 2.2
2018-Feb-15 20:30N 35°13' E 139°45'3 5.3
2018-Feb-15 20:00N 35°11' E 139°46'1 1.7
2018-Feb-15 19:25N 35°10' E 139°47'4 9.2
2018-Feb-15 19:01N 35°13' E 139°44'1 1.7
2018-Feb-15 18:29N 35°13' E 139°43'0 0.0
2018-Feb-15 17:51N 35°13' E 139°43'0 0.0
2018-Feb-15 17:26N 35°13' E 139°43'0 0.0
2018-Feb-15 17:00N 35°13' E 139°43'0 0.0
2018-Feb-15 16:30N 35°13' E 139°43'0 0.0
2018-Feb-15 15:54N 35°13' E 139°43'0 0.0
2018-Feb-15 15:28N 35°13' E 139°43'0 0.0
2018-Feb-15 15:00N 35°13' E 139°43'2 3.4
2018-Feb-15 14:30N 35°12' E 139°45'3 5.3
2018-Feb-15 14:00N 35°10' E 139°47'4 7.7
2018-Feb-15 13:30N 35°13' E 139°44'1 0.9
2018-Feb-15 12:52N 35°13' E 139°43'0 0.0
2018-Feb-15 12:29N 35°13' E 139°43'0 0.0
2018-Feb-15 11:57N 35°13' E 139°43'0 0.0
2018-Feb-15 11:29N 35°13' E 139°43'1 2.9
2018-Feb-15 11:00N 35°13' E 139°45'1 1.7
2018-Feb-15 10:30N 35°13' E 139°45'1 2.2
2018-Feb-15 10:01N 35°13' E 139°43'0 0.6
2018-Feb-15 09:30N 35°13' E 139°43'0 0.0
2018-Feb-15 08:58N 35°13' E 139°43'2 4.8
2018-Feb-15 08:30N 35°13' E 139°46'1 2.5
2018-Feb-15 08:00N 35°13' E 139°44'1 1.8
2018-Feb-15 07:30N 35°13' E 139°43'0 0.0
2018-Feb-15 07:00N 35°13' E 139°43'0 0.0
2018-Feb-15 06:29N 35°13' E 139°43'0 0.0
2018-Feb-15 06:00N 35°13' E 139°43'0 0.0
2018-Feb-15 05:29N 35°13' E 139°43'0 0.0
2018-Feb-15 05:00N 35°13' E 139°43'0 0.1
2018-Feb-15 04:30N 35°13' E 139°43'2 4.2
2018-Feb-15 04:00N 35°13' E 139°46'2 3.4
2018-Feb-15 03:30N 35°13' E 139°43'0 0.7
2018-Feb-15 03:00N 35°13' E 139°43'0 0.0
2018-Feb-15 02:30N 35°13' E 139°43'0 0.0
2018-Feb-15 02:00N 35°13' E 139°43'0 0.0
2018-Feb-15 01:30N 35°13' E 139°43'0 0.0
2018-Feb-15 01:00N 35°13' E 139°43'0 0.0
2018-Feb-15 00:30N 35°13' E 139°43'0 0.0
2018-Feb-15 00:00N 35°13' E 139°43'0 0.0
2018-Feb-14 23:29N 35°13' E 139°43'0 0.0
2018-Feb-14 23:00N 35°13' E 139°43'0 0.0
2018-Feb-14 22:30N 35°13' E 139°43'0 0.0
2018-Feb-14 22:00N 35°13' E 139°43'0 0.0
2018-Feb-14 21:30N 35°13' E 139°43'0 0.0
2018-Feb-14 21:00N 35°13' E 139°43'1 2.4
2018-Feb-14 20:30N 35°13' E 139°45'1 2.9
2018-Feb-14 20:00N 35°14' E 139°46'2 3.9
2018-Feb-14 19:30N 35°13' E 139°44'0 0.9
2018-Feb-14 18:58N 35°13' E 139°43'0 0.0
2018-Feb-14 18:30N 35°13' E 139°43'0 0.0
2018-Feb-14 17:59N 35°13' E 139°43'0 0.0
2018-Feb-14 17:30N 35°13' E 139°43'0 0.0
2018-Feb-14 17:00N 35°13' E 139°43'0 0.0
2018-Feb-14 16:30N 35°13' E 139°43'4 8.7
2018-Feb-14 16:00N 35°10' E 139°46'2 3.6
2018-Feb-14 15:29N 35°11' E 139°47'3 6.6
2018-Feb-14 14:59N 35°13' E 139°43'0 0.1
2018-Feb-14 12:19N 35°13' E 139°43'1 4.5
2018-Feb-14 12:01N 35°13' E 139°45'1 1.3
2018-Feb-14 11:30N 35°13' E 139°45'2 4.4
2018-Feb-14 11:01N 35°11' E 139°46'0 0.7
2018-Feb-14 10:31N 35°11' E 139°46'4 7.0
2018-Feb-14 10:00N 35°13' E 139°43'1 1.4
2018-Feb-14 09:31N 35°13' E 139°44'2 2.9
2018-Feb-14 08:59N 35°13' E 139°46'2 4.2
2018-Feb-14 08:30N 35°13' E 139°43'0 0.4
2018-Feb-14 08:01N 35°13' E 139°43'2 4.4
2018-Feb-14 07:30N 35°14' E 139°46'0 0.3
2018-Feb-14 07:00N 35°14' E 139°46'4 7.0
2018-Feb-14 06:30N 35°10' E 139°47'1 1.9
2018-Feb-14 06:00N 35°11' E 139°47'4 7.9
2018-Feb-14 05:30N 35°13' E 139°43'2 3.5
2018-Feb-14 05:00N 35°13' E 139°45'2 4.4
2018-Feb-14 04:30N 35°15' E 139°46'2 3.7
2018-Feb-14 04:00N 35°13' E 139°45'1 2.9
2018-Feb-14 03:29N 35°13' E 139°43'5 9.1
2018-Feb-14 02:59N 35°10' E 139°46'2 3.3
2018-Feb-14 02:29N 35°11' E 139°47'4 7.3
2018-Feb-14 01:58N 35°13' E 139°43'0 0.0
2018-Feb-14 01:02N 35°13' E 139°43'0 0.0
2018-Feb-14 01:00N 35°13' E 139°43'0 0.0
2018-Feb-14 00:07N 35°13' E 139°43'0 0.0
2018-Feb-14 00:01N 35°13' E 139°43'0 0.0
2018-Feb-13 23:30N 35°13' E 139°43'0 0.0
2018-Feb-13 23:00N 35°13' E 139°43'0 0.0
2018-Feb-13 22:31N 35°13' E 139°43'2 3.9
2018-Feb-13 22:00N 35°13' E 139°46'1 2.5
2018-Feb-13 21:30N 35°12' E 139°46'2 4.2
2018-Feb-13 21:00N 35°10' E 139°46'4 8.2
2018-Feb-13 20:28N 35°13' E 139°43'0 0.0
2018-Feb-13 20:00N 35°13' E 139°43'2 3.1
2018-Feb-13 19:31N 35°13' E 139°45'0 0.6
2018-Feb-13 19:00N 35°13' E 139°45'2 3.5
2018-Feb-13 18:30N 35°13' E 139°43'0 0.0
2018-Feb-13 18:00N 35°13' E 139°43'0 0.0
2018-Feb-13 17:29N 35°13' E 139°43'0 0.0
2018-Feb-13 17:00N 35°13' E 139°43'0 0.0
2018-Feb-13 16:30N 35°13' E 139°43'0 0.0
2018-Feb-13 15:59N 35°13' E 139°43'0 0.0
2018-Feb-13 15:30N 35°13' E 139°43'0 0.0
2018-Feb-13 15:00N 35°13' E 139°43'0 0.0
2018-Feb-13 14:29N 35°13' E 139°43'0 0.0
2018-Feb-13 14:00N 35°13' E 139°43'0 0.0
2018-Feb-13 13:30N 35°13' E 139°43'0 0.0
2018-Feb-13 13:00N 35°13' E 139°43'5 9.9
2018-Feb-13 12:31N 35°10' E 139°47'3 6.7
2018-Feb-13 12:00N 35°12' E 139°45'2 2.1
2018-Feb-13 11:16N 35°13' E 139°43'0 0.0
2018-Feb-13 10:52N 35°13' E 139°43'0 0.0
2018-Feb-13 10:30N 35°13' E 139°43'0 0.0
2018-Feb-13 10:00N 35°13' E 139°43'0 0.0
2018-Feb-13 09:30N 35°13' E 139°43'0 0.0
2018-Feb-13 08:57N 35°13' E 139°43'2 5.3
2018-Feb-13 08:30N 35°12' E 139°46'2 3.6
2018-Feb-13 08:00N 35°14' E 139°46'2 4.1
2018-Feb-13 07:30N 35°13' E 139°43'1 2.3
2018-Feb-13 07:00N 35°13' E 139°44'2 3.1
2018-Feb-13 06:31N 35°14' E 139°46'2 3.5
2018-Feb-13 06:01N 35°13' E 139°44'1 0.2
2018-Feb-13 03:01N 35°13' E 139°43'0 0.0
2018-Feb-13 02:58N 35°13' E 139°43'0 0.0
2018-Feb-13 02:10N 35°13' E 139°43'1 5.1
2018-Feb-13 02:00N 35°13' E 139°44'3 6.1
2018-Feb-13 01:30N 35°11' E 139°47'4 7.7
2018-Feb-13 01:00N 35°13' E 139°43'0 0.0
2018-Feb-12 23:47N 35°13' E 139°43'0 0.0
2018-Feb-12 22:35N 35°13' E 139°43'0 0.0
2018-Feb-12 22:18N 35°13' E 139°43'2 7.0
2018-Feb-12 22:01N 35°13' E 139°45'1 2.1
2018-Feb-12 21:31N 35°14' E 139°45'2 3.6
2018-Feb-12 21:00N 35°13' E 139°43'0 0.0
2018-Feb-12 20:30N 35°13' E 139°43'0 0.0
2018-Feb-12 19:40N 35°13' E 139°43'1 7.4
2018-Feb-12 19:30N 35°13' E 139°45'2 3.2
2018-Feb-12 19:00N 35°15' E 139°46'2 4.8
2018-Feb-12 18:30N 35°13' E 139°43'0 0.0
2018-Feb-12 18:00N 35°13' E 139°43'0 0.0
2018-Feb-12 17:30N 35°13' E 139°43'0 0.0
2018-Feb-12 16:59N 35°13' E 139°43'0 0.0
2018-Feb-12 16:30N 35°13' E 139°43'0 0.0
2018-Feb-12 16:00N 35°13' E 139°43'0 0.0
2018-Feb-12 15:29N 35°13' E 139°43'0 0.0
2018-Feb-12 15:01N 35°13' E 139°43'0 0.0
2018-Feb-12 14:30N 35°13' E 139°43'0 0.0
2018-Feb-12 13:59N 35°13' E 139°43'0 0.0
2018-Feb-12 13:29N 35°13' E 139°43'0 0.0
2018-Feb-12 12:57N 35°13' E 139°43'0 0.0
2018-Feb-12 12:29N 35°13' E 139°43'2 4.1
2018-Feb-12 12:00N 35°13' E 139°46'2 3.2
2018-Feb-12 11:30N 35°13' E 139°44'0 0.8
2018-Feb-12 10:57N 35°13' E 139°43'0 0.0
2018-Feb-12 10:30N 35°13' E 139°43'0 0.0
2018-Feb-12 10:00N 35°13' E 139°43'0 0.0
2018-Feb-12 09:30N 35°13' E 139°43'0 0.0
2018-Feb-12 08:59N 35°13' E 139°43'0 0.0
2018-Feb-12 08:30N 35°13' E 139°43'0 0.0
2018-Feb-12 08:00N 35°13' E 139°43'1 1.1
2018-Feb-12 07:30N 35°13' E 139°44'2 3.4
2018-Feb-12 06:59N 35°13' E 139°46'2 4.1
2018-Feb-12 06:31N 35°15' E 139°46'3 5.2
2018-Feb-12 06:00N 35°13' E 139°43'0 0.0
2018-Feb-12 05:30N 35°13' E 139°43'2 4.4
2018-Feb-12 04:59N 35°13' E 139°46'2 3.3
2018-Feb-12 04:30N 35°14' E 139°46'4 7.6
2018-Feb-12 04:00N 35°11' E 139°47'2 3.6
2018-Feb-12 03:30N 35°11' E 139°45'3 5.0
2018-Feb-12 02:58N 35°13' E 139°43'0 0.0
2018-Feb-12 02:30N 35°13' E 139°43'3 5.2
2018-Feb-12 02:01N 35°12' E 139°46'2 3.4
2018-Feb-12 01:31N 35°14' E 139°45'2 1.9
2018-Feb-12 00:30N 35°13' E 139°43'5 9.4
2018-Feb-12 00:00N 35°10' E 139°47'1 1.7
2018-Feb-11 23:30N 35°10' E 139°47'4 8.6
2018-Feb-11 23:00N 35°13' E 139°43'0 0.0
2018-Feb-11 22:30N 35°13' E 139°43'0 0.0
2018-Feb-11 22:00N 35°13' E 139°43'0 0.0
2018-Feb-11 21:29N 35°13' E 139°43'0 0.0
2018-Feb-11 21:00N 35°13' E 139°43'3 5.4
2018-Feb-11 20:30N 35°12' E 139°46'2 3.1
2018-Feb-11 20:00N 35°11' E 139°46'1 3.0
2018-Feb-11 19:30N 35°09' E 139°47'4 7.4
2018-Feb-11 19:00N 35°13' E 139°45'2 3.3
2018-Feb-11 18:29N 35°13' E 139°43'0 0.0
2018-Feb-11 18:00N 35°13' E 139°43'0 0.0
2018-Feb-11 17:29N 35°13' E 139°43'0 0.0
2018-Feb-11 16:58N 35°13' E 139°43'0 0.0
2018-Feb-11 16:30N 35°13' E 139°43'0 0.0
2018-Feb-11 16:00N 35°13' E 139°43'0 0.0
2018-Feb-11 15:30N 35°13' E 139°43'0 0.0
2018-Feb-11 15:00N 35°13' E 139°43'0 0.0
2018-Feb-11 14:30N 35°13' E 139°43'0 0.0
2018-Feb-11 14:00N 35°13' E 139°43'0 0.0
2018-Feb-11 13:29N 35°13' E 139°43'0 0.0
2018-Feb-11 12:59N 35°13' E 139°43'0 0.0
2018-Feb-11 12:30N 35°13' E 139°43'0 0.0
2018-Feb-11 12:00N 35°13' E 139°43'2 3.0
2018-Feb-11 11:30N 35°12' E 139°45'1 2.4
2018-Feb-11 11:00N 35°13' E 139°46'1 1.4
2018-Feb-11 10:30N 35°12' E 139°46'1 1.9
2018-Feb-11 10:00N 35°11' E 139°45'3 5.9
2018-Feb-11 09:30N 35°13' E 139°43'0 0.0
2018-Feb-11 09:00N 35°13' E 139°43'0 0.0
2018-Feb-11 08:30N 35°13' E 139°43'0 0.0
2018-Feb-11 07:59N 35°13' E 139°43'2 3.5
2018-Feb-11 07:30N 35°13' E 139°45'1 1.9
2018-Feb-11 07:00N 35°14' E 139°45'1 2.0
2018-Feb-11 06:30N 35°13' E 139°44'1 1.9
2018-Feb-11 06:00N 35°13' E 139°43'0 0.0
2018-Feb-11 05:30N 35°13' E 139°43'0 0.0
2018-Feb-11 05:00N 35°13' E 139°43'0 0.0
2018-Feb-11 04:30N 35°13' E 139°43'0 0.0
2018-Feb-11 04:00N 35°13' E 139°43'0 0.0
2018-Feb-11 03:30N 35°13' E 139°43'0 0.0
2018-Feb-11 03:00N 35°13' E 139°43'2 4.3
2018-Feb-11 02:30N 35°13' E 139°46'1 2.8
2018-Feb-11 02:01N 35°13' E 139°44'1 1.5
2018-Feb-11 01:30N 35°13' E 139°43'0 0.0
2018-Feb-11 00:58N 35°13' E 139°43'0 0.0
2018-Feb-11 00:30N 35°13' E 139°43'0 0.0
2018-Feb-11 00:00N 35°13' E 139°43'0 0.0
2018-Feb-10 23:29N 35°13' E 139°43'3 5.1
2018-Feb-10 23:00N 35°12' E 139°45'2 4.8
2018-Feb-10 22:30N 35°10' E 139°47'4 7.7
2018-Feb-10 22:00N 35°13' E 139°45'1 0.7
2018-Feb-10 20:09N 35°13' E 139°43'1 7.0
2018-Feb-10 20:00N 35°13' E 139°44'4 7.8
2018-Feb-10 19:30N 35°10' E 139°47'4 7.7
2018-Feb-10 19:01N 35°13' E 139°44'1 2.3
2018-Feb-10 18:30N 35°13' E 139°43'0 0.0
2018-Feb-10 18:00N 35°13' E 139°43'0 0.0
2018-Feb-10 17:30N 35°13' E 139°43'0 0.0
2018-Feb-10 17:00N 35°13' E 139°43'0 0.0
2018-Feb-10 16:30N 35°13' E 139°43'0 0.0
2018-Feb-10 16:00N 35°13' E 139°43'0 0.0
2018-Feb-10 15:30N 35°13' E 139°43'1 1.5
2018-Feb-10 15:01N 35°13' E 139°44'4 7.8
2018-Feb-10 14:30N 35°10' E 139°47'4 8.3
2018-Feb-10 13:58N 35°13' E 139°43'0 0.1
2018-Feb-10 13:30N 35°13' E 139°43'0 0.0
2018-Feb-10 13:00N 35°13' E 139°43'0 0.0
2018-Feb-10 12:30N 35°13' E 139°43'0 0.0
2018-Feb-10 11:59N 35°13' E 139°43'0 0.2
2018-Feb-10 11:30N 35°13' E 139°43'2 3.6
2018-Feb-10 10:58N 35°13' E 139°46'2 4.3
2018-Feb-10 10:30N 35°13' E 139°43'0 0.0
2018-Feb-10 10:00N 35°13' E 139°43'2 4.3
2018-Feb-10 09:30N 35°13' E 139°46'2 3.2
2018-Feb-10 08:58N 35°14' E 139°45'2 4.5
2018-Feb-10 08:30N 35°12' E 139°45'3 5.0
2018-Feb-10 08:00N 35°15' E 139°45'2 1.6
2018-Feb-10 06:27N 35°13' E 139°43'2 5.3
2018-Feb-10 06:00N 35°13' E 139°46'2 4.3
2018-Feb-10 05:29N 35°13' E 139°43'0 0.3
2018-Feb-10 05:00N 35°13' E 139°43'0 0.0
2018-Feb-10 04:30N 35°13' E 139°43'0 0.0
2018-Feb-10 04:00N 35°13' E 139°43'0 0.0
2018-Feb-10 03:30N 35°13' E 139°43'0 0.0
2018-Feb-10 03:00N 35°13' E 139°43'0 0.0
2018-Feb-10 02:30N 35°13' E 139°43'2 4.9
2018-Feb-10 02:00N 35°11' E 139°45'1 1.7
2018-Feb-10 01:30N 35°11' E 139°46'3 6.6
2018-Feb-10 01:00N 35°13' E 139°43'0 0.0
2018-Feb-10 00:30N 35°13' E 139°43'3 5.3
2018-Feb-10 00:00N 35°12' E 139°46'1 1.8
2018-Feb-09 23:30N 35°13' E 139°46'3 6.8
2018-Feb-09 23:00N 35°10' E 139°47'1 3.1
2018-Feb-09 22:45N 35°11' E 139°46'4 3.1
2018-Feb-09 21:31N 35°13' E 139°43'0 0.0
2018-Feb-09 18:30N 35°13' E 139°43'0 0.0
2018-Feb-09 18:00N 35°13' E 139°43'0 0.0
2018-Feb-09 16:30N 35°13' E 139°43'0 0.0
2018-Feb-09 15:30N 35°13' E 139°43'2 1.9
2018-Feb-09 14:30N 35°13' E 139°45'0 0.1
2018-Feb-09 10:30N 35°13' E 139°45'  
Track history (hours):
 
Tides and Currents Weather Stations Pressure Air Temp Water Temp Dewpoint Dewpoint Depression Visibility Wind Speed Wind Dir Waves Ship Positions

Amagimaru

Last reported at 2018-Feb-19 09:22 UTC. Time now 2018-Feb-19 09:51 UTC.
Position N 35°13' E 139°43'.

Length 38 m; draft 3.4 m.

Type: Tug. MMSI: 431101065.

Date/timePositionNaut miles runAvg speedWind from/ knotsBaromVisibWave heightAir tempDewpointWater temp
2018-Feb-19 09:22N 35°13' E 139°43'1 2.2
2018-Feb-19 09:00N 35°13' E 139°44'2 3.4
2018-Feb-19 08:30N 35°14' E 139°46'0 0.7
2018-Feb-19 08:00N 35°14' E 139°45'4 8.3
2018-Feb-19 07:29N 35°10' E 139°47'4 7.7
2018-Feb-19 07:01N 35°13' E 139°44'1 1.8
2018-Feb-19 06:30N 35°13' E 139°43'0 0.0
2018-Feb-19 05:54N 35°13' E 139°43'0 0.0
2018-Feb-19 05:30N 35°13' E 139°43'3 5.2
2018-Feb-19 05:00N 35°12' E 139°46'2 3.3
2018-Feb-19 04:31N 35°14' E 139°45'2 3.9
2018-Feb-19 04:00N 35°13' E 139°43'0 0.0
2018-Feb-19 03:30N 35°13' E 139°43'0 0.0
2018-Feb-19 03:00N 35°13' E 139°43'0 0.0
2018-Feb-19 02:30N 35°13' E 139°43'4 7.4
2018-Feb-19 02:00N 35°10' E 139°46'1 2.1
2018-Feb-19 01:30N 35°11' E 139°46'3 5.6
2018-Feb-19 01:00N 35°13' E 139°43'0 0.0
2018-Feb-19 00:30N 35°13' E 139°43'0 0.0
2018-Feb-19 00:00N 35°13' E 139°43'0 0.0
2018-Feb-18 23:30N 35°13' E 139°43'0 0.0
2018-Feb-18 23:00N 35°13' E 139°43'0 0.0
2018-Feb-18 22:30N 35°13' E 139°43'0 0.0
2018-Feb-18 22:00N 35°13' E 139°43'0 0.0
2018-Feb-18 21:30N 35°13' E 139°43'3 5.4
2018-Feb-18 21:00N 35°11' E 139°45'2 3.9
2018-Feb-18 20:30N 35°10' E 139°47'5 9.3
2018-Feb-18 20:00N 35°13' E 139°43'0 0.0
2018-Feb-18 19:30N 35°13' E 139°43'1 2.3
2018-Feb-18 19:00N 35°13' E 139°44'2 4.4
2018-Feb-18 18:30N 35°11' E 139°46'3 6.5
2018-Feb-18 18:00N 35°13' E 139°43'0 0.0
2018-Feb-18 17:30N 35°13' E 139°43'0 0.0
2018-Feb-18 17:00N 35°13' E 139°43'0 0.0
2018-Feb-18 16:30N 35°13' E 139°43'0 0.0
2018-Feb-18 16:00N 35°13' E 139°43'0 0.0
2018-Feb-18 15:30N 35°13' E 139°43'0 0.0
2018-Feb-18 15:00N 35°13' E 139°43'0 0.0
2018-Feb-18 14:30N 35°13' E 139°43'0 0.0
2018-Feb-18 14:00N 35°13' E 139°43'0 0.0
2018-Feb-18 13:30N 35°13' E 139°43'0 0.0
2018-Feb-18 12:59N 35°13' E 139°43'0 0.0
2018-Feb-18 12:30N 35°13' E 139°43'0 0.0
2018-Feb-18 12:00N 35°13' E 139°43'0 0.0
2018-Feb-18 11:30N 35°13' E 139°43'0 0.0
2018-Feb-18 11:00N 35°13' E 139°43'2 4.3
2018-Feb-18 10:30N 35°13' E 139°46'1 2.8
2018-Feb-18 10:00N 35°13' E 139°44'1 1.4
2018-Feb-18 09:27N 35°13' E 139°43'1 1.9
2018-Feb-18 09:00N 35°13' E 139°44'2 3.1
2018-Feb-18 08:30N 35°14' E 139°46'1 2.9
2018-Feb-18 07:59N 35°12' E 139°46'2 3.7
2018-Feb-18 07:28N 35°11' E 139°47'4 8.7
2018-Feb-18 07:01N 35°13' E 139°43'0 0.1
2018-Feb-18 06:30N 35°13' E 139°43'0 0.0
2018-Feb-18 05:59N 35°13' E 139°43'0 0.0
2018-Feb-18 05:30N 35°13' E 139°43'0 0.0
2018-Feb-18 05:00N 35°13' E 139°43'0 0.0
2018-Feb-18 04:29N 35°13' E 139°43'0 0.0
2018-Feb-18 04:00N 35°13' E 139°43'1 1.9
2018-Feb-18 03:30N 35°13' E 139°44'4 7.5
2018-Feb-18 02:59N 35°10' E 139°47'2 3.1
2018-Feb-18 02:30N 35°11' E 139°46'3 6.0
2018-Feb-18 02:00N 35°13' E 139°43'0 0.0
2018-Feb-18 01:30N 35°13' E 139°43'0 0.0
2018-Feb-18 00:58N 35°13' E 139°43'0 0.0
2018-Feb-18 00:28N 35°13' E 139°43'1 2.5
2018-Feb-18 00:00N 35°13' E 139°44'4 7.2
2018-Feb-17 23:30N 35°10' E 139°46'4 7.6
2018-Feb-17 23:00N 35°13' E 139°44'1 1.7
2018-Feb-17 22:30N 35°13' E 139°43'0 0.0
2018-Feb-17 22:00N 35°13' E 139°43'0 0.0
2018-Feb-17 21:30N 35°13' E 139°43'0 0.0
2018-Feb-17 21:00N 35°13' E 139°43'0 0.0
2018-Feb-17 20:30N 35°13' E 139°43'4 8.2
2018-Feb-17 20:00N 35°10' E 139°46'1 2.1
2018-Feb-17 19:30N 35°10' E 139°47'4 7.1
2018-Feb-17 19:00N 35°13' E 139°45'1 2.3
2018-Feb-17 18:29N 35°13' E 139°43'0 0.0
2018-Feb-17 18:00N 35°13' E 139°43'0 0.0
2018-Feb-17 17:28N 35°13' E 139°43'0 0.0
2018-Feb-17 16:58N 35°13' E 139°43'0 0.0
2018-Feb-17 16:28N 35°13' E 139°43'0 0.0
2018-Feb-17 15:59N 35°13' E 139°43'0 0.0
2018-Feb-17 15:27N 35°13' E 139°43'0 0.0
2018-Feb-17 14:50N 35°13' E 139°43'0 0.0
2018-Feb-17 14:06N 35°13' E 139°43'0 0.0
2018-Feb-17 14:00N 35°13' E 139°43'2 4.2
2018-Feb-17 13:30N 35°13' E 139°46'1 1.8
2018-Feb-17 13:00N 35°13' E 139°45'1 2.5
2018-Feb-17 12:30N 35°13' E 139°43'0 0.0
2018-Feb-17 12:00N 35°13' E 139°43'0 0.0
2018-Feb-17 11:30N 35°13' E 139°43'2 4.4
2018-Feb-17 10:59N 35°13' E 139°46'1 3.1
2018-Feb-17 10:30N 35°13' E 139°44'1 1.1
2018-Feb-17 09:45N 35°13' E 139°43'0 0.0
2018-Feb-17 09:12N 35°13' E 139°43'0 0.0
2018-Feb-17 09:00N 35°13' E 139°43'1 1.3
2018-Feb-17 08:30N 35°13' E 139°44'1 2.9
2018-Feb-17 08:00N 35°14' E 139°45'0 0.7
2018-Feb-17 07:31N 35°14' E 139°45'4 8.2
2018-Feb-17 07:00N 35°10' E 139°47'2 3.3
2018-Feb-17 06:30N 35°11' E 139°47'4 7.7
2018-Feb-17 06:01N 35°13' E 139°43'2 4.6
2018-Feb-17 05:30N 35°13' E 139°46'1 2.9
2018-Feb-17 05:00N 35°13' E 139°44'1 1.8
2018-Feb-17 04:30N 35°13' E 139°43'0 0.0
2018-Feb-17 01:45N 35°13' E 139°43'0 0.0
2018-Feb-17 01:24N 35°13' E 139°43'0 0.0
2018-Feb-17 00:59N 35°13' E 139°43'0 0.0
2018-Feb-17 00:28N 35°13' E 139°43'0 0.0
2018-Feb-16 23:09N 35°13' E 139°43'0 0.1
2018-Feb-16 23:00N 35°13' E 139°43'2 4.0
2018-Feb-16 22:30N 35°13' E 139°46'2 4.0
2018-Feb-16 22:00N 35°13' E 139°43'0 0.0
2018-Feb-16 21:30N 35°13' E 139°43'0 0.0
2018-Feb-16 21:01N 35°13' E 139°43'4 7.9
2018-Feb-16 20:31N 35°10' E 139°47'4 7.8
2018-Feb-16 20:00N 35°13' E 139°43'5 9.4
2018-Feb-16 19:30N 35°09' E 139°46'1 1.4
2018-Feb-16 19:00N 35°10' E 139°47'3 6.7
2018-Feb-16 18:30N 35°13' E 139°44'1 2.3
2018-Feb-16 18:00N 35°13' E 139°43'0 0.0
2018-Feb-16 17:30N 35°13' E 139°43'3 5.2
2018-Feb-16 17:00N 35°12' E 139°46'1 2.7
2018-Feb-16 16:30N 35°13' E 139°45'2 3.1
2018-Feb-16 16:00N 35°13' E 139°43'0 0.0
2018-Feb-16 15:30N 35°13' E 139°43'0 0.0
2018-Feb-16 15:00N 35°13' E 139°43'0 0.0
2018-Feb-16 14:30N 35°13' E 139°43'0 0.0
2018-Feb-16 14:00N 35°13' E 139°43'0 0.0
2018-Feb-16 13:30N 35°13' E 139°43'0 0.0
2018-Feb-16 13:00N 35°13' E 139°43'0 0.0
2018-Feb-16 12:30N 35°13' E 139°43'0 0.0
2018-Feb-16 12:00N 35°13' E 139°43'2 4.7
2018-Feb-16 11:30N 35°12' E 139°46'1 2.9
2018-Feb-16 11:00N 35°13' E 139°45'1 2.6
2018-Feb-16 10:29N 35°13' E 139°43'0 0.0
2018-Feb-16 10:00N 35°13' E 139°43'0 0.0
2018-Feb-16 09:30N 35°13' E 139°43'0 0.1
2018-Feb-16 08:53N 35°13' E 139°43'2 6.1
2018-Feb-16 08:31N 35°12' E 139°46'1 2.6
2018-Feb-16 08:00N 35°14' E 139°45'2 3.0
2018-Feb-16 07:30N 35°13' E 139°43'0 0.0
2018-Feb-16 06:58N 35°13' E 139°43'0 0.0
2018-Feb-16 06:30N 35°13' E 139°43'0 0.0
2018-Feb-16 05:56N 35°13' E 139°43'3 6.2
2018-Feb-16 05:30N 35°12' E 139°46'1 2.9
2018-Feb-16 05:00N 35°13' E 139°45'2 3.3
2018-Feb-16 04:30N 35°13' E 139°43'0 0.0
2018-Feb-16 04:00N 35°13' E 139°43'0 0.0
2018-Feb-16 03:29N 35°13' E 139°43'0 0.0
2018-Feb-16 03:01N 35°13' E 139°43'0 0.0
2018-Feb-16 02:30N 35°13' E 139°43'3 6.2
2018-Feb-16 02:00N 35°11' E 139°46'0 0.0
2018-Feb-16 01:31N 35°11' E 139°46'3 5.5
2018-Feb-16 00:58N 35°13' E 139°43'0 0.0
2018-Feb-16 00:30N 35°13' E 139°43'0 0.0
2018-Feb-15 23:56N 35°13' E 139°43'0 0.0
2018-Feb-15 23:30N 35°13' E 139°43'0 0.0
2018-Feb-15 22:59N 35°13' E 139°43'0 0.0
2018-Feb-15 22:30N 35°13' E 139°43'0 0.0
2018-Feb-15 21:26N 35°13' E 139°43'1 1.8
2018-Feb-15 21:00N 35°13' E 139°44'1 2.2
2018-Feb-15 20:30N 35°13' E 139°45'3 5.3
2018-Feb-15 20:00N 35°11' E 139°46'1 1.7
2018-Feb-15 19:25N 35°10' E 139°47'4 9.2
2018-Feb-15 19:01N 35°13' E 139°44'1 1.7
2018-Feb-15 18:29N 35°13' E 139°43'0 0.0
2018-Feb-15 17:51N 35°13' E 139°43'0 0.0
2018-Feb-15 17:26N 35°13' E 139°43'0 0.0
2018-Feb-15 17:00N 35°13' E 139°43'0 0.0
2018-Feb-15 16:30N 35°13' E 139°43'0 0.0
2018-Feb-15 15:54N 35°13' E 139°43'0 0.0
2018-Feb-15 15:28N 35°13' E 139°43'0 0.0
2018-Feb-15 15:00N 35°13' E 139°43'2 3.4
2018-Feb-15 14:30N 35°12' E 139°45'3 5.3
2018-Feb-15 14:00N 35°10' E 139°47'4 7.7
2018-Feb-15 13:30N 35°13' E 139°44'1 0.9
2018-Feb-15 12:52N 35°13' E 139°43'0 0.0
2018-Feb-15 12:29N 35°13' E 139°43'0 0.0
2018-Feb-15 11:57N 35°13' E 139°43'0 0.0
2018-Feb-15 11:29N 35°13' E 139°43'1 2.9
2018-Feb-15 11:00N 35°13' E 139°45'1 1.7
2018-Feb-15 10:30N 35°13' E 139°45'1 2.2
2018-Feb-15 10:01N 35°13' E 139°43'0 0.6
2018-Feb-15 09:30N 35°13' E 139°43'0 0.0
2018-Feb-15 08:58N 35°13' E 139°43'2 4.8
2018-Feb-15 08:30N 35°13' E 139°46'1 2.5
2018-Feb-15 08:00N 35°13' E 139°44'1 1.8
2018-Feb-15 07:30N 35°13' E 139°43'0 0.0
2018-Feb-15 07:00N 35°13' E 139°43'0 0.0
2018-Feb-15 06:29N 35°13' E 139°43'0 0.0
2018-Feb-15 06:00N 35°13' E 139°43'0 0.0
2018-Feb-15 05:29N 35°13' E 139°43'0 0.0
2018-Feb-15 05:00N 35°13' E 139°43'0 0.1
2018-Feb-15 04:30N 35°13' E 139°43'2 4.2
2018-Feb-15 04:00N 35°13' E 139°46'2 3.4
2018-Feb-15 03:30N 35°13' E 139°43'0 0.7
2018-Feb-15 03:00N 35°13' E 139°43'0 0.0
2018-Feb-15 02:30N 35°13' E 139°43'0 0.0
2018-Feb-15 02:00N 35°13' E 139°43'0 0.0
2018-Feb-15 01:30N 35°13' E 139°43'0 0.0
2018-Feb-15 01:00N 35°13' E 139°43'0 0.0
2018-Feb-15 00:30N 35°13' E 139°43'0 0.0
2018-Feb-15 00:00N 35°13' E 139°43'0 0.0
2018-Feb-14 23:29N 35°13' E 139°43'0 0.0
2018-Feb-14 23:00N 35°13' E 139°43'0 0.0
2018-Feb-14 22:30N 35°13' E 139°43'0 0.0
2018-Feb-14 22:00N 35°13' E 139°43'0 0.0
2018-Feb-14 21:30N 35°13' E 139°43'0 0.0
2018-Feb-14 21:00N 35°13' E 139°43'1 2.4
2018-Feb-14 20:30N 35°13' E 139°45'1 2.9
2018-Feb-14 20:00N 35°14' E 139°46'2 3.9
2018-Feb-14 19:30N 35°13' E 139°44'0 0.9
2018-Feb-14 18:58N 35°13' E 139°43'0 0.0
2018-Feb-14 18:30N 35°13' E 139°43'0 0.0
2018-Feb-14 17:59N 35°13' E 139°43'0 0.0
2018-Feb-14 17:30N 35°13' E 139°43'0 0.0
2018-Feb-14 17:00N 35°13' E 139°43'0 0.0
2018-Feb-14 16:30N 35°13' E 139°43'4 8.7
2018-Feb-14 16:00N 35°10' E 139°46'2 3.6
2018-Feb-14 15:29N 35°11' E 139°47'3 6.6
2018-Feb-14 14:59N 35°13' E 139°43'0 0.1
2018-Feb-14 12:19N 35°13' E 139°43'1 4.5
2018-Feb-14 12:01N 35°13' E 139°45'1 1.3
2018-Feb-14 11:30N 35°13' E 139°45'2 4.4
2018-Feb-14 11:01N 35°11' E 139°46'0 0.7
2018-Feb-14 10:31N 35°11' E 139°46'4 7.0
2018-Feb-14 10:00N 35°13' E 139°43'1 1.4
2018-Feb-14 09:31N 35°13' E 139°44'2 2.9
2018-Feb-14 08:59N 35°13' E 139°46'2 4.2
2018-Feb-14 08:30N 35°13' E 139°43'0 0.4
2018-Feb-14 08:01N 35°13' E 139°43'2 4.4
2018-Feb-14 07:30N 35°14' E 139°46'0 0.3
2018-Feb-14 07:00N 35°14' E 139°46'4 7.0
2018-Feb-14 06:30N 35°10' E 139°47'1 1.9
2018-Feb-14 06:00N 35°11' E 139°47'4 7.9
2018-Feb-14 05:30N 35°13' E 139°43'2 3.5
2018-Feb-14 05:00N 35°13' E 139°45'2 4.4
2018-Feb-14 04:30N 35°15' E 139°46'2 3.7
2018-Feb-14 04:00N 35°13' E 139°45'1 2.9
2018-Feb-14 03:29N 35°13' E 139°43'5 9.1
2018-Feb-14 02:59N 35°10' E 139°46'2 3.3
2018-Feb-14 02:29N 35°11' E 139°47'4 7.3
2018-Feb-14 01:58N 35°13' E 139°43'0 0.0
2018-Feb-14 01:02N 35°13' E 139°43'0 0.0
2018-Feb-14 01:00N 35°13' E 139°43'0 0.0
2018-Feb-14 00:07N 35°13' E 139°43'0 0.0
2018-Feb-14 00:01N 35°13' E 139°43'0 0.0
2018-Feb-13 23:30N 35°13' E 139°43'0 0.0
2018-Feb-13 23:00N 35°13' E 139°43'0 0.0
2018-Feb-13 22:31N 35°13' E 139°43'2 3.9
2018-Feb-13 22:00N 35°13' E 139°46'1 2.5
2018-Feb-13 21:30N 35°12' E 139°46'2 4.2
2018-Feb-13 21:00N 35°10' E 139°46'4 8.2
2018-Feb-13 20:28N 35°13' E 139°43'0 0.0
2018-Feb-13 20:00N 35°13' E 139°43'2 3.1
2018-Feb-13 19:31N 35°13' E 139°45'0 0.6
2018-Feb-13 19:00N 35°13' E 139°45'2 3.5
2018-Feb-13 18:30N 35°13' E 139°43'0 0.0
2018-Feb-13 18:00N 35°13' E 139°43'0 0.0
2018-Feb-13 17:29N 35°13' E 139°43'0 0.0
2018-Feb-13 17:00N 35°13' E 139°43'0 0.0
2018-Feb-13 16:30N 35°13' E 139°43'0 0.0
2018-Feb-13 15:59N 35°13' E 139°43'0 0.0
2018-Feb-13 15:30N 35°13' E 139°43'0 0.0
2018-Feb-13 15:00N 35°13' E 139°43'0 0.0
2018-Feb-13 14:29N 35°13' E 139°43'0 0.0
2018-Feb-13 14:00N 35°13' E 139°43'0 0.0
2018-Feb-13 13:30N 35°13' E 139°43'0 0.0
2018-Feb-13 13:00N 35°13' E 139°43'5 9.9
2018-Feb-13 12:31N 35°10' E 139°47'3 6.7
2018-Feb-13 12:00N 35°12' E 139°45'2 2.1
2018-Feb-13 11:16N 35°13' E 139°43'0 0.0
2018-Feb-13 10:52N 35°13' E 139°43'0 0.0
2018-Feb-13 10:30N 35°13' E 139°43'0 0.0
2018-Feb-13 10:00N 35°13' E 139°43'0 0.0
2018-Feb-13 09:30N 35°13' E 139°43'0 0.0
2018-Feb-13 08:57N 35°13' E 139°43'2 5.3
2018-Feb-13 08:30N 35°12' E 139°46'2 3.6
2018-Feb-13 08:00N 35°14' E 139°46'2 4.1
2018-Feb-13 07:30N 35°13' E 139°43'1 2.3
2018-Feb-13 07:00N 35°13' E 139°44'2 3.1
2018-Feb-13 06:31N 35°14' E 139°46'2 3.5
2018-Feb-13 06:01N 35°13' E 139°44'1 0.2
2018-Feb-13 03:01N 35°13' E 139°43'0 0.0
2018-Feb-13 02:58N 35°13' E 139°43'0 0.0
2018-Feb-13 02:10N 35°13' E 139°43'1 5.1
2018-Feb-13 02:00N 35°13' E 139°44'3 6.1
2018-Feb-13 01:30N 35°11' E 139°47'4 7.7
2018-Feb-13 01:00N 35°13' E 139°43'0 0.0
2018-Feb-12 23:47N 35°13' E 139°43'0 0.0
2018-Feb-12 22:35N 35°13' E 139°43'0 0.0
2018-Feb-12 22:18N 35°13' E 139°43'2 7.0
2018-Feb-12 22:01N 35°13' E 139°45'1 2.1
2018-Feb-12 21:31N 35°14' E 139°45'2 3.6
2018-Feb-12 21:00N 35°13' E 139°43'0 0.0
2018-Feb-12 20:30N 35°13' E 139°43'0 0.0
2018-Feb-12 19:40N 35°13' E 139°43'1 7.4
2018-Feb-12 19:30N 35°13' E 139°45'2 3.2
2018-Feb-12 19:00N 35°15' E 139°46'2 4.8
2018-Feb-12 18:30N 35°13' E 139°43'0 0.0
2018-Feb-12 18:00N 35°13' E 139°43'0 0.0
2018-Feb-12 17:30N 35°13' E 139°43'0 0.0
2018-Feb-12 16:59N 35°13' E 139°43'0 0.0
2018-Feb-12 16:30N 35°13' E 139°43'0 0.0
2018-Feb-12 16:00N 35°13' E 139°43'0 0.0
2018-Feb-12 15:29N 35°13' E 139°43'0 0.0
2018-Feb-12 15:01N 35°13' E 139°43'0 0.0
2018-Feb-12 14:30N 35°13' E 139°43'0 0.0
2018-Feb-12 13:59N 35°13' E 139°43'0 0.0
2018-Feb-12 13:29N 35°13' E 139°43'0 0.0
2018-Feb-12 12:57N 35°13' E 139°43'0 0.0
2018-Feb-12 12:29N 35°13' E 139°43'2 4.1
2018-Feb-12 12:00N 35°13' E 139°46'2 3.2
2018-Feb-12 11:30N 35°13' E 139°44'0 0.8
2018-Feb-12 10:57N 35°13' E 139°43'0 0.0
2018-Feb-12 10:30N 35°13' E 139°43'0 0.0
2018-Feb-12 10:00N 35°13' E 139°43'0 0.0
2018-Feb-12 09:30N 35°13' E 139°43'0 0.0
2018-Feb-12 08:59N 35°13' E 139°43'0 0.0
2018-Feb-12 08:30N 35°13' E 139°43'0 0.0
2018-Feb-12 08:00N 35°13' E 139°43'1 1.1
2018-Feb-12 07:30N 35°13' E 139°44'2 3.4
2018-Feb-12 06:59N 35°13' E 139°46'2 4.1
2018-Feb-12 06:31N 35°15' E 139°46'3 5.2
2018-Feb-12 06:00N 35°13' E 139°43'0 0.0
2018-Feb-12 05:30N 35°13' E 139°43'2 4.4
2018-Feb-12 04:59N 35°13' E 139°46'2 3.3
2018-Feb-12 04:30N 35°14' E 139°46'4 7.6
2018-Feb-12 04:00N 35°11' E 139°47'2 3.6
2018-Feb-12 03:30N 35°11' E 139°45'3 5.0
2018-Feb-12 02:58N 35°13' E 139°43'0 0.0
2018-Feb-12 02:30N 35°13' E 139°43'3 5.2
2018-Feb-12 02:01N 35°12' E 139°46'2 3.4
2018-Feb-12 01:31N 35°14' E 139°45'2 1.9
2018-Feb-12 00:30N 35°13' E 139°43'5 9.4
2018-Feb-12 00:00N 35°10' E 139°47'1 1.7
2018-Feb-11 23:30N 35°10' E 139°47'4 8.6
2018-Feb-11 23:00N 35°13' E 139°43'0 0.0
2018-Feb-11 22:30N 35°13' E 139°43'0 0.0
2018-Feb-11 22:00N 35°13' E 139°43'0 0.0
2018-Feb-11 21:29N 35°13' E 139°43'0 0.0
2018-Feb-11 21:00N 35°13' E 139°43'3 5.4
2018-Feb-11 20:30N 35°12' E 139°46'2 3.1
2018-Feb-11 20:00N 35°11' E 139°46'1 3.0
2018-Feb-11 19:30N 35°09' E 139°47'4 7.4
2018-Feb-11 19:00N 35°13' E 139°45'2 3.3
2018-Feb-11 18:29N 35°13' E 139°43'0 0.0
2018-Feb-11 18:00N 35°13' E 139°43'0 0.0
2018-Feb-11 17:29N 35°13' E 139°43'0 0.0
2018-Feb-11 16:58N 35°13' E 139°43'0 0.0
2018-Feb-11 16:30N 35°13' E 139°43'0 0.0
2018-Feb-11 16:00N 35°13' E 139°43'0 0.0
2018-Feb-11 15:30N 35°13' E 139°43'0 0.0
2018-Feb-11 15:00N 35°13' E 139°43'0 0.0
2018-Feb-11 14:30N 35°13' E 139°43'0 0.0
2018-Feb-11 14:00N 35°13' E 139°43'0 0.0
2018-Feb-11 13:29N 35°13' E 139°43'0 0.0
2018-Feb-11 12:59N 35°13' E 139°43'0 0.0
2018-Feb-11 12:30N 35°13' E 139°43'0 0.0
2018-Feb-11 12:00N 35°13' E 139°43'2 3.0
2018-Feb-11 11:30N 35°12' E 139°45'1 2.4
2018-Feb-11 11:00N 35°13' E 139°46'1 1.4
2018-Feb-11 10:30N 35°12' E 139°46'1 1.9
2018-Feb-11 10:00N 35°11' E 139°45'3 5.9
2018-Feb-11 09:30N 35°13' E 139°43'0 0.0
2018-Feb-11 09:00N 35°13' E 139°43'0 0.0
2018-Feb-11 08:30N 35°13' E 139°43'0 0.0
2018-Feb-11 07:59N 35°13' E 139°43'2 3.5
2018-Feb-11 07:30N 35°13' E 139°45'1 1.9
2018-Feb-11 07:00N 35°14' E 139°45'1 2.0
2018-Feb-11 06:30N 35°13' E 139°44'1 1.9
2018-Feb-11 06:00N 35°13' E 139°43'0 0.0
2018-Feb-11 05:30N 35°13' E 139°43'0 0.0
2018-Feb-11 05:00N 35°13' E 139°43'0 0.0
2018-Feb-11 04:30N 35°13' E 139°43'0 0.0
2018-Feb-11 04:00N 35°13' E 139°43'0 0.0
2018-Feb-11 03:30N 35°13' E 139°43'0 0.0
2018-Feb-11 03:00N 35°13' E 139°43'2 4.3
2018-Feb-11 02:30N 35°13' E 139°46'1 2.8
2018-Feb-11 02:01N 35°13' E 139°44'1 1.5
2018-Feb-11 01:30N 35°13' E 139°43'0 0.0
2018-Feb-11 00:58N 35°13' E 139°43'0 0.0
2018-Feb-11 00:30N 35°13' E 139°43'0 0.0
2018-Feb-11 00:00N 35°13' E 139°43'0 0.0
2018-Feb-10 23:29N 35°13' E 139°43'3 5.1
2018-Feb-10 23:00N 35°12' E 139°45'2 4.8
2018-Feb-10 22:30N 35°10' E 139°47'4 7.7
2018-Feb-10 22:00N 35°13' E 139°45'1 0.7
2018-Feb-10 20:09N 35°13' E 139°43'1 7.0
2018-Feb-10 20:00N 35°13' E 139°44'4 7.8
2018-Feb-10 19:30N 35°10' E 139°47'4 7.7
2018-Feb-10 19:01N 35°13' E 139°44'1 2.3
2018-Feb-10 18:30N 35°13' E 139°43'0 0.0
2018-Feb-10 18:00N 35°13' E 139°43'0 0.0
2018-Feb-10 17:30N 35°13' E 139°43'0 0.0
2018-Feb-10 17:00N 35°13' E 139°43'0 0.0
2018-Feb-10 16:30N 35°13' E 139°43'0 0.0
2018-Feb-10 16:00N 35°13' E 139°43'0 0.0
2018-Feb-10 15:30N 35°13' E 139°43'1 1.5
2018-Feb-10 15:01N 35°13' E 139°44'4 7.8
2018-Feb-10 14:30N 35°10' E 139°47'4 8.3
2018-Feb-10 13:58N 35°13' E 139°43'0 0.1
2018-Feb-10 13:30N 35°13' E 139°43'0 0.0
2018-Feb-10 13:00N 35°13' E 139°43'0 0.0
2018-Feb-10 12:30N 35°13' E 139°43'0 0.0
2018-Feb-10 11:59N 35°13' E 139°43'0 0.2
2018-Feb-10 11:30N 35°13' E 139°43'2 3.6
2018-Feb-10 10:58N 35°13' E 139°46'2 4.3
2018-Feb-10 10:30N 35°13' E 139°43'0 0.0
2018-Feb-10 10:00N 35°13' E 139°43'2 4.3
2018-Feb-10 09:30N 35°13' E 139°46'2 3.2
2018-Feb-10 08:58N 35°14' E 139°45'2 4.5
2018-Feb-10 08:30N 35°12' E 139°45'3 5.0
2018-Feb-10 08:00N 35°15' E 139°45'2 1.6
2018-Feb-10 06:27N 35°13' E 139°43'2 5.3
2018-Feb-10 06:00N 35°13' E 139°46'2 4.3
2018-Feb-10 05:29N 35°13' E 139°43'0 0.3
2018-Feb-10 05:00N 35°13' E 139°43'0 0.0
2018-Feb-10 04:30N 35°13' E 139°43'0 0.0
2018-Feb-10 04:00N 35°13' E 139°43'0 0.0
2018-Feb-10 03:30N 35°13' E 139°43'0 0.0
2018-Feb-10 03:00N 35°13' E 139°43'0 0.0
2018-Feb-10 02:30N 35°13' E 139°43'2 4.9
2018-Feb-10 02:00N 35°11' E 139°45'1 1.7
2018-Feb-10 01:30N 35°11' E 139°46'3 6.6
2018-Feb-10 01:00N 35°13' E 139°43'0 0.0
2018-Feb-10 00:30N 35°13' E 139°43'3 5.3
2018-Feb-10 00:00N 35°12' E 139°46'1 1.8
2018-Feb-09 23:30N 35°13' E 139°46'3 6.8
2018-Feb-09 23:00N 35°10' E 139°47'1 3.1
2018-Feb-09 22:45N 35°11' E 139°46'4 3.1
2018-Feb-09 21:31N 35°13' E 139°43'0 0.0
2018-Feb-09 18:30N 35°13' E 139°43'0 0.0
2018-Feb-09 18:00N 35°13' E 139°43'0 0.0
2018-Feb-09 16:30N 35°13' E 139°43'0 0.0
2018-Feb-09 15:30N 35°13' E 139°43'2 1.9
2018-Feb-09 14:30N 35°13' E 139°45'0 0.1
2018-Feb-09 10:30N 35°13' E 139°45'  

Dump ship's entire track history